createdAt,value
2023-01-01T00:00:12.691Z,18.44
2023-01-01T00:02:40.254Z,18.40
2023-01-01T00:05:10.653Z,18.38
2023-01-01T00:07:42.449Z,18.38
2023-01-01T00:10:33.114Z,18.38
2023-01-01T00:13:07.420Z,18.40
2023-01-01T00:15:39.578Z,18.37
2023-01-01T00:18:06.678Z,18.32
2023-01-01T00:20:35.524Z,18.22
2023-01-01T00:23:08.455Z,18.19
2023-01-01T00:25:45.151Z,18.17
2023-01-01T00:28:18.572Z,18.10
2023-01-01T00:30:49.700Z,17.99
2023-01-01T00:33:24.599Z,18.07
2023-01-01T00:36:04.607Z,18.05
2023-01-01T00:38:40.371Z,18.02
2023-01-01T00:41:17.769Z,18.08
2023-01-01T00:43:53.629Z,18.03
2023-01-01T00:46:23.088Z,18.04
2023-01-01T00:48:51.663Z,17.99
2023-01-01T00:51:30.506Z,17.93
2023-01-01T00:54:24.219Z,17.87
2023-01-01T00:56:59.719Z,17.81
2023-01-01T00:59:54.507Z,17.82
2023-01-01T01:02:51.651Z,17.80
2023-01-01T01:06:10.679Z,17.79
2023-01-01T01:08:51.401Z,17.73
2023-01-01T01:11:32.526Z,17.68
2023-01-01T01:14:31.478Z,17.72
2023-01-01T01:17:00.992Z,17.73
2023-01-01T01:19:28.241Z,17.74
2023-01-01T01:21:56.332Z,17.72
2023-01-01T01:24:23.586Z,17.67
2023-01-01T01:26:50.521Z,17.66
2023-01-01T01:29:18.924Z,17.60
2023-01-01T01:31:46.038Z,17.54
2023-01-01T01:34:27.224Z,17.52
2023-01-01T01:36:56.739Z,17.52
2023-01-01T01:39:25.328Z,17.57
2023-01-01T01:41:52.788Z,17.49
2023-01-01T01:44:41.315Z,17.51
2023-01-01T01:47:15.450Z,17.46
2023-01-01T01:49:44.861Z,17.36
2023-01-01T01:52:12.709Z,17.37
2023-01-01T01:54:42.514Z,17.34
2023-01-01T01:57:33.559Z,17.39
2023-01-01T02:00:17.253Z,17.33
2023-01-01T02:02:53.076Z,17.32
2023-01-01T02:05:28.869Z,17.31
2023-01-01T02:07:59.209Z,17.29
2023-01-01T02:10:33.213Z,17.26
2023-01-01T02:13:00.736Z,17.21
2023-01-01T02:15:41.005Z,17.26
2023-01-01T02:18:19.391Z,17.21
2023-01-01T02:21:07.013Z,17.18
2023-01-01T02:24:01.833Z,17.17
2023-01-01T02:26:44.850Z,17.21
2023-01-01T02:29:25.453Z,17.14
2023-01-01T02:32:02.073Z,17.17
2023-01-01T02:34:34.467Z,17.19
2023-01-01T02:37:06.004Z,17.11
2023-01-01T02:39:41.494Z,17.11
2023-01-01T02:42:10.212Z,17.07
2023-01-01T02:44:44.982Z,17.04
2023-01-01T02:47:15.303Z,17.04
2023-01-01T02:49:51.105Z,17.04
2023-01-01T02:52:37.093Z,17.00
2023-01-01T02:58:41.991Z,16.92
2023-01-01T03:01:16.784Z,16.91
2023-01-01T03:04:00.156Z,16.84
2023-01-01T03:06:51.710Z,16.80
2023-01-01T03:09:28.343Z,16.82
2023-01-01T03:12:02.684Z,16.77
2023-01-01T03:14:59.469Z,16.73
2023-01-01T03:17:42.619Z,16.75
2023-01-01T03:20:13.938Z,16.72
2023-01-01T03:25:20.502Z,16.70
2023-01-01T03:27:49.950Z,16.69
2023-01-01T03:30:20.479Z,16.71
2023-01-01T03:33:00.727Z,16.65
2023-01-01T03:35:47.514Z,16.63
2023-01-01T03:38:26.473Z,16.55
2023-01-01T03:40:59.527Z,16.50
2023-01-01T03:43:37.088Z,16.51
2023-01-01T03:46:12.854Z,16.44
2023-01-01T03:49:03.893Z,16.44
2023-01-01T03:51:53.091Z,16.44
2023-01-01T03:54:31.432Z,16.39
2023-01-01T03:57:08.518Z,16.32
2023-01-01T04:00:01.297Z,16.23
2023-01-01T04:02:49.138Z,16.24
2023-01-01T04:05:34.679Z,16.18
2023-01-01T04:08:08.899Z,16.15
2023-01-01T04:10:44.316Z,16.14
2023-01-01T04:13:21.224Z,16.21
2023-01-01T04:15:57.715Z,16.16
2023-01-01T04:18:45.188Z,16.14
2023-01-01T04:21:17.134Z,16.16
2023-01-01T04:23:49.816Z,16.21
2023-01-01T04:26:25.468Z,16.22
2023-01-01T04:28:59.858Z,16.24
2023-01-01T04:31:39.371Z,16.26
2023-01-01T04:34:15.228Z,16.26
2023-01-01T04:36:53.839Z,16.24
2023-01-01T04:39:29.377Z,16.26
2023-01-01T04:42:12.781Z,16.24
2023-01-01T04:45:02.732Z,16.22
2023-01-01T04:47:35.661Z,16.17
2023-01-01T04:50:12.652Z,16.24
2023-01-01T04:52:46.728Z,16.27
2023-01-01T04:55:25.096Z,16.27
2023-01-01T04:58:07.201Z,16.31
2023-01-01T05:00:47.556Z,16.28
2023-01-01T05:03:24.552Z,16.27
2023-01-01T05:06:23.442Z,16.20
2023-01-01T05:08:59.655Z,16.19
2023-01-01T05:11:34.370Z,16.14
2023-01-01T05:14:10.339Z,16.13
2023-01-01T05:16:45.736Z,16.19
2023-01-01T05:19:16.859Z,16.08
2023-01-01T05:21:54.893Z,16.12
2023-01-01T05:24:25.208Z,16.05
2023-01-01T05:26:59.044Z,16.11
2023-01-01T05:29:40.133Z,16.08
2023-01-01T05:34:45.662Z,15.98
2023-01-01T05:37:39.132Z,15.92
2023-01-01T05:40:17.613Z,15.93
2023-01-01T05:42:58.812Z,15.90
2023-01-01T05:45:35.388Z,15.85
2023-01-01T05:48:07.425Z,15.81
2023-01-01T05:50:45.997Z,15.74
2023-01-01T05:53:19.810Z,15.74
2023-01-01T05:56:01.741Z,15.76
2023-01-01T05:58:39.153Z,15.71
2023-01-01T06:01:22.730Z,15.70
2023-01-01T06:04:09.830Z,15.72
2023-01-01T06:06:49.836Z,15.63
2023-01-01T06:09:31.727Z,15.64
2023-01-01T06:12:09.715Z,15.69
2023-01-01T06:14:52.933Z,15.61
2023-01-01T06:17:36.598Z,15.60
2023-01-01T06:20:05.283Z,15.59
2023-01-01T06:22:42.020Z,15.62
2023-01-01T06:25:19.586Z,15.60
2023-01-01T06:27:58.157Z,15.59
2023-01-01T06:30:41.761Z,15.68
2023-01-01T06:33:19.472Z,15.70
2023-01-01T06:35:57.892Z,15.69
2023-01-01T06:38:37.456Z,15.63
2023-01-01T06:41:12.179Z,15.59
2023-01-01T06:43:49.992Z,15.53
2023-01-01T06:46:25.300Z,15.51
2023-01-01T06:49:00.984Z,15.51
2023-01-01T06:51:44.403Z,15.48
2023-01-01T06:54:16.853Z,15.56
2023-01-01T06:57:03.092Z,15.54
2023-01-01T06:59:34.435Z,15.55
2023-01-01T07:02:14.981Z,15.54
2023-01-01T07:05:00.049Z,15.57
2023-01-01T07:07:31.189Z,15.50
2023-01-01T07:10:03.673Z,15.55
2023-01-01T07:12:32.989Z,15.53
2023-01-01T07:15:02.567Z,15.51
2023-01-01T07:17:34.267Z,15.49
2023-01-01T07:20:05.970Z,15.41
2023-01-01T07:22:44.131Z,15.42
2023-01-01T07:25:15.372Z,15.44
2023-01-01T07:27:49.853Z,15.43
2023-01-01T07:30:16.989Z,15.46
2023-01-01T07:32:44.361Z,15.23
2023-01-01T07:35:11.426Z,15.28
2023-01-01T07:37:38.675Z,15.38
2023-01-01T07:40:06.108Z,15.38
2023-01-01T07:42:38.521Z,15.40
2023-01-01T07:45:11.382Z,15.53
2023-01-01T07:47:42.296Z,15.49
2023-01-01T07:50:18.706Z,15.57
2023-01-01T07:52:49.019Z,15.42
2023-01-01T07:55:20.585Z,15.32
2023-01-01T07:57:49.297Z,15.30
2023-01-01T08:00:19.078Z,15.46
2023-01-01T08:02:49.862Z,15.48
2023-01-01T08:05:22.648Z,15.44
2023-01-01T08:07:56.595Z,15.30
2023-01-01T08:10:26.632Z,15.29
2023-01-01T08:13:04.823Z,15.42
2023-01-01T08:15:35.476Z,15.43
2023-01-01T08:18:05.916Z,15.42
2023-01-01T08:20:33.984Z,15.46
2023-01-01T08:23:07.648Z,15.55
2023-01-01T08:25:40.357Z,15.53
2023-01-01T08:28:10.759Z,15.57
2023-01-01T08:30:43.495Z,15.69
2023-01-01T08:33:17.370Z,15.72
2023-01-01T08:35:54.076Z,15.74
2023-01-01T08:38:27.620Z,15.85
2023-01-01T08:41:03.269Z,15.93
2023-01-01T08:43:33.411Z,16.02
2023-01-01T08:46:04.142Z,16.12
2023-01-01T08:48:34.682Z,16.22
2023-01-01T08:51:07.388Z,16.24
2023-01-01T08:53:34.468Z,16.27
2023-01-01T08:56:08.770Z,16.38
2023-01-01T08:58:37.067Z,16.44
2023-01-01T09:01:07.643Z,16.55
2023-01-01T09:03:35.143Z,16.54
2023-01-01T09:06:05.108Z,16.55
2023-01-01T09:08:35.050Z,16.60
2023-01-01T09:11:02.957Z,16.66
2023-01-01T09:13:30.287Z,16.76
2023-01-01T09:15:57.819Z,16.79
2023-01-01T09:18:25.040Z,16.80
2023-01-01T09:20:52.397Z,16.84
2023-01-01T09:23:26.863Z,16.86
2023-01-01T09:26:02.418Z,16.90
2023-01-01T09:28:32.751Z,16.88
2023-01-01T09:31:12.178Z,16.95
2023-01-01T09:33:46.551Z,16.94
2023-01-01T09:36:33.161Z,17.02
2023-01-01T09:39:02.715Z,16.80
2023-01-01T09:41:44.661Z,16.98
2023-01-01T09:44:26.544Z,17.05
2023-01-01T09:47:03.253Z,17.07
2023-01-01T09:49:49.656Z,17.12
2023-01-01T09:52:23.505Z,17.08
2023-01-01T09:55:01.579Z,17.12
2023-01-01T09:57:33.150Z,17.34
2023-01-01T10:00:01.063Z,17.43
2023-01-01T10:03:04.896Z,17.51
2023-01-01T10:05:47.849Z,17.49
2023-01-01T10:08:29.474Z,17.58
2023-01-01T10:10:57.275Z,17.61
2023-01-01T10:13:41.775Z,17.77
2023-01-01T10:16:32.023Z,17.77
2023-01-01T10:19:03.255Z,17.91
2023-01-01T10:21:42.104Z,17.88
2023-01-01T10:24:39.661Z,17.87
2023-01-01T10:27:09.123Z,17.84
2023-01-01T10:29:43.273Z,17.94
2023-01-01T10:32:28.959Z,18.07
2023-01-01T10:35:03.901Z,18.18
2023-01-01T10:37:39.333Z,18.18
2023-01-01T10:40:28.876Z,18.67
2023-01-01T10:43:03.246Z,19.24
2023-01-01T10:45:35.653Z,19.90
2023-01-01T10:48:19.456Z,20.53
2023-01-01T10:51:03.789Z,21.10
2023-01-01T10:53:35.936Z,21.73
2023-01-01T10:56:06.530Z,22.10
2023-01-01T10:58:36.857Z,21.97
2023-01-01T11:01:08.812Z,22.53
2023-01-01T11:03:44.861Z,22.65
2023-01-01T11:06:23.258Z,22.83
2023-01-01T11:08:54.212Z,22.96
2023-01-01T11:11:31.988Z,23.01
2023-01-01T11:14:04.779Z,23.04
2023-01-01T11:16:42.373Z,22.85
2023-01-01T11:19:20.903Z,23.04
2023-01-01T11:24:35.151Z,23.28
2023-01-01T11:27:28.186Z,23.32
2023-01-01T11:30:15.572Z,23.35
2023-01-01T11:32:42.643Z,23.38
2023-01-01T11:35:18.057Z,22.57
2023-01-01T11:37:49.413Z,22.16
2023-01-01T11:40:40.466Z,22.20
2023-01-01T11:43:08.770Z,22.45
2023-01-01T11:45:45.034Z,23.05
2023-01-01T11:48:34.095Z,23.07
2023-01-01T11:51:10.235Z,22.96
2023-01-01T11:53:46.607Z,23.16
2023-01-01T11:56:21.039Z,23.66
2023-01-01T11:59:04.768Z,24.38
2023-01-01T12:01:49.377Z,24.58
2023-01-01T12:04:26.283Z,25.32
2023-01-01T12:07:11.086Z,25.63
2023-01-01T12:09:38.112Z,25.61
2023-01-01T12:12:08.201Z,24.09
2023-01-01T12:15:05.769Z,24.70
2023-01-01T12:17:52.376Z,25.43
2023-01-01T12:21:01.453Z,25.55
2023-01-01T12:23:32.022Z,25.38
2023-01-01T12:26:18.273Z,25.34
2023-01-01T12:28:54.791Z,25.43
2023-01-01T12:31:30.911Z,25.29
2023-01-01T12:34:33.832Z,25.24
2023-01-01T12:37:12.716Z,24.70
2023-01-01T12:40:14.955Z,24.45
2023-01-01T12:42:53.994Z,24.32
2023-01-01T12:45:56.733Z,23.40
2023-01-01T12:48:32.593Z,23.63
2023-01-01T12:51:21.569Z,23.41
2023-01-01T12:54:10.213Z,22.29
2023-01-01T12:56:56.000Z,22.41
2023-01-01T12:59:36.181Z,21.93
2023-01-01T13:02:14.754Z,21.72
2023-01-01T13:04:44.944Z,21.83
2023-01-01T13:07:20.870Z,21.67
2023-01-01T13:09:53.773Z,21.97
2023-01-01T13:12:26.434Z,22.03
2023-01-01T13:14:58.082Z,21.85
2023-01-01T13:17:27.064Z,22.01
2023-01-01T13:20:15.516Z,22.03
2023-01-01T13:22:48.861Z,22.13
2023-01-01T13:25:24.258Z,21.97
2023-01-01T13:28:02.638Z,21.88
2023-01-01T13:30:38.405Z,21.72
2023-01-01T13:33:31.605Z,21.85
2023-01-01T13:36:16.206Z,22.01
2023-01-01T13:38:54.378Z,21.81
2023-01-01T13:41:31.453Z,22.05
2023-01-01T13:44:05.600Z,22.02
2023-01-01T13:46:38.911Z,22.09
2023-01-01T13:49:18.815Z,22.14
2023-01-01T13:52:08.715Z,22.29
2023-01-01T13:54:41.640Z,21.89
2023-01-01T13:57:24.464Z,22.06
2023-01-01T14:00:12.278Z,22.16
2023-01-01T14:03:02.234Z,21.82
2023-01-01T14:05:32.944Z,21.62
2023-01-01T14:08:13.005Z,21.41
2023-01-01T14:10:40.693Z,21.55
2023-01-01T14:13:17.654Z,21.60
2023-01-01T14:15:51.010Z,21.66
2023-01-01T14:18:33.084Z,21.56
2023-01-01T14:21:01.249Z,21.61
2023-01-01T14:23:41.719Z,21.41
2023-01-01T14:26:37.432Z,21.51
2023-01-01T14:29:11.630Z,21.25
2023-01-01T14:31:44.007Z,21.57
2023-01-01T14:34:32.710Z,21.31
2023-01-01T14:37:05.538Z,21.28
2023-01-01T14:39:37.695Z,21.34
2023-01-01T14:42:18.220Z,21.44
2023-01-01T14:44:54.614Z,21.58
2023-01-01T14:47:21.965Z,21.60
2023-01-01T14:49:58.314Z,21.73
2023-01-01T14:52:28.012Z,21.83
2023-01-01T14:55:03.215Z,21.77
2023-01-01T14:57:36.792Z,22.01
2023-01-01T15:00:24.634Z,22.01
2023-01-01T15:02:57.323Z,21.84
2023-01-01T15:05:35.410Z,21.77
2023-01-01T15:08:07.058Z,21.94
2023-01-01T15:10:38.928Z,21.78
2023-01-01T15:13:07.845Z,21.80
2023-01-01T15:15:40.667Z,21.45
2023-01-01T15:18:30.123Z,21.71
2023-01-01T15:21:00.624Z,21.69
2023-01-01T15:23:27.934Z,21.72
2023-01-01T15:25:58.387Z,21.63
2023-01-01T15:28:25.627Z,21.63
2023-01-01T15:30:57.506Z,21.34
2023-01-01T15:33:27.699Z,21.36
2023-01-01T15:36:15.144Z,21.40
2023-01-01T15:38:46.387Z,21.42
2023-01-01T15:41:32.253Z,21.34
2023-01-01T15:44:23.013Z,21.33
2023-01-01T15:46:53.712Z,21.35
2023-01-01T15:49:28.042Z,21.18
2023-01-01T15:52:03.925Z,21.27
2023-01-01T15:54:35.983Z,21.28
2023-01-01T15:57:07.640Z,21.26
2023-01-01T15:59:41.097Z,21.16
2023-01-01T16:02:18.244Z,21.09
2023-01-01T16:04:46.964Z,20.93
2023-01-01T16:07:21.181Z,20.93
2023-01-01T16:09:57.419Z,20.93
2023-01-01T16:12:28.279Z,20.85
2023-01-01T16:15:00.552Z,20.72
2023-01-01T16:17:33.613Z,20.76
2023-01-01T16:20:03.207Z,20.52
2023-01-01T16:22:36.832Z,20.58
2023-01-01T16:25:13.523Z,20.56
2023-01-01T16:27:41.052Z,20.46
2023-01-01T16:30:09.688Z,20.25
2023-01-01T16:32:39.852Z,20.35
2023-01-01T16:35:12.112Z,20.33
2023-01-01T16:37:42.288Z,20.35
2023-01-01T16:40:09.995Z,20.29
2023-01-01T16:42:37.048Z,20.27
2023-01-01T16:45:07.751Z,20.28
2023-01-01T16:47:38.227Z,20.16
2023-01-01T16:50:12.908Z,20.21
2023-01-01T16:52:44.744Z,20.14
2023-01-01T16:55:38.427Z,20.13
2023-01-01T16:58:47.455Z,19.99
2023-01-01T17:01:09.988Z,19.95
2023-01-01T17:03:38.976Z,19.96
2023-01-01T17:06:15.544Z,19.94
2023-01-01T17:08:52.712Z,19.89
2023-01-01T17:11:24.349Z,19.72
2023-01-01T17:14:02.928Z,19.77
2023-01-01T17:16:43.439Z,19.72
2023-01-01T17:19:16.554Z,19.70
2023-01-01T17:21:50.713Z,19.55
2023-01-01T17:24:21.284Z,19.55
2023-01-01T17:27:05.955Z,19.51
2023-01-01T17:29:47.159Z,19.51
2023-01-01T17:32:22.209Z,19.55
2023-01-01T17:34:53.196Z,19.54
2023-01-01T17:37:25.567Z,19.43
2023-01-01T17:39:53.030Z,19.41
2023-01-01T17:42:23.340Z,19.36
2023-01-01T17:44:51.522Z,19.37
2023-01-01T17:47:19.688Z,19.31
2023-01-01T17:49:49.423Z,19.29
2023-01-01T17:52:16.604Z,19.26
2023-01-01T17:54:48.993Z,19.30
2023-01-01T17:57:19.551Z,19.31
2023-01-01T17:59:52.772Z,19.30
2023-01-01T18:02:23.836Z,19.26
2023-01-01T18:04:54.799Z,19.23
2023-01-01T18:07:25.042Z,19.22
2023-01-01T18:09:58.289Z,19.21
2023-01-01T18:12:52.732Z,19.25
2023-01-01T18:15:43.891Z,19.26
2023-01-01T18:18:33.765Z,19.22
2023-01-01T18:24:18.725Z,19.10
2023-01-01T18:27:24.721Z,19.07
2023-01-01T18:32:53.822Z,18.95
2023-01-01T18:35:31.123Z,18.97
2023-01-01T18:38:08.507Z,18.90
2023-01-01T18:40:55.592Z,18.92
2023-01-01T18:44:09.728Z,18.89
2023-01-01T18:47:02.881Z,18.85
2023-01-01T18:49:51.772Z,18.76
2023-01-01T18:52:27.311Z,18.76
2023-01-01T18:55:32.878Z,18.73
2023-01-01T18:58:24.539Z,18.67
2023-01-01T19:01:08.606Z,18.66
2023-01-01T19:04:04.177Z,18.61
2023-01-01T19:07:06.072Z,18.62
2023-01-01T19:10:07.816Z,18.57
2023-01-01T19:16:24.195Z,18.49
2023-01-01T19:19:29.763Z,18.46
2023-01-01T19:22:29.633Z,18.43
2023-01-01T19:25:56.401Z,18.32
2023-01-01T19:28:52.743Z,18.28
2023-01-01T19:31:40.908Z,18.20
2023-01-01T19:34:15.833Z,18.21
2023-01-01T19:37:02.291Z,18.14
2023-01-01T19:42:50.893Z,18.08
2023-01-01T19:45:33.249Z,18.06
2023-01-01T19:48:07.442Z,17.99
2023-01-01T19:50:54.767Z,17.94
2023-01-01T19:53:47.843Z,17.97
2023-01-01T19:56:34.200Z,17.95
2023-01-01T19:59:46.805Z,17.94
2023-01-01T20:02:54.879Z,17.95
2023-01-01T20:05:53.411Z,17.92
2023-01-01T20:08:37.700Z,17.84
2023-01-01T20:11:18.962Z,17.86
2023-01-01T20:14:04.245Z,17.79
2023-01-01T20:19:49.367Z,17.81
2023-01-01T20:22:34.438Z,17.82
2023-01-01T20:25:33.710Z,17.79
2023-01-01T20:28:37.848Z,17.76
2023-01-01T20:31:38.166Z,17.71
2023-01-01T20:34:27.125Z,17.64
2023-01-01T20:37:39.117Z,17.58
2023-01-01T20:40:51.062Z,17.54
2023-01-01T20:46:54.588Z,17.50
2023-01-01T20:49:48.074Z,17.46
2023-01-01T20:52:23.475Z,17.39
2023-01-01T20:55:06.814Z,17.33
2023-01-01T20:57:40.789Z,17.31
2023-01-01T21:00:26.583Z,17.29
2023-01-01T21:02:57.953Z,17.25
2023-01-01T21:05:40.227Z,17.22
2023-01-01T21:08:14.039Z,17.18
2023-01-01T21:13:59.406Z,17.07
2023-01-01T21:16:49.105Z,17.02
2023-01-01T21:19:44.451Z,17.01
2023-01-01T21:22:39.627Z,16.97
2023-01-01T21:28:31.501Z,16.94
2023-01-01T21:31:19.362Z,16.91
2023-01-01T21:34:08.395Z,16.85
2023-01-01T21:37:02.538Z,16.87
2023-01-01T21:39:49.958Z,16.83
2023-01-01T21:42:44.949Z,16.85
2023-01-01T21:45:47.191Z,16.77
2023-01-01T21:48:39.002Z,16.74
2023-01-01T21:52:08.843Z,16.74
2023-01-01T21:55:03.852Z,16.78
2023-01-01T21:57:42.141Z,16.74
2023-01-01T22:00:25.077Z,16.74
2023-01-01T22:03:21.313Z,16.71
2023-01-01T22:06:10.233Z,16.77
2023-01-01T22:09:01.225Z,16.74
2023-01-01T22:11:43.266Z,16.75
2023-01-01T22:14:30.590Z,16.74
2023-01-01T22:17:33.495Z,16.74
2023-01-01T22:20:27.694Z,16.79
2023-01-01T22:23:18.018Z,16.78
2023-01-01T22:26:08.876Z,16.70
2023-01-01T22:29:04.395Z,16.72
2023-01-01T22:31:49.356Z,16.72
2023-01-01T22:34:36.049Z,16.66
2023-01-01T22:37:32.101Z,16.65
2023-01-01T22:40:24.003Z,16.61
2023-01-01T22:43:13.675Z,16.57
2023-01-01T22:45:56.717Z,16.55
2023-01-01T22:52:02.712Z,16.49
2023-01-01T22:54:58.796Z,16.45
2023-01-01T22:57:42.784Z,16.47
2023-01-01T23:00:50.037Z,16.39
2023-01-01T23:03:47.448Z,16.39
2023-01-01T23:06:26.375Z,16.36
2023-01-01T23:09:18.103Z,16.40
2023-01-01T23:12:04.854Z,16.40
2023-01-01T23:15:04.906Z,16.42
2023-01-01T23:17:42.712Z,16.40
2023-01-01T23:20:23.989Z,16.39
2023-01-01T23:23:24.030Z,16.42
2023-01-01T23:26:03.293Z,16.39
2023-01-01T23:28:46.279Z,16.37
2023-01-01T23:31:35.014Z,16.37
2023-01-01T23:34:39.997Z,16.35
2023-01-01T23:37:20.448Z,16.23
2023-01-01T23:40:04.276Z,16.21
2023-01-01T23:42:45.409Z,16.17
2023-01-01T23:45:43.735Z,16.19
2023-01-01T23:51:18.093Z,16.02
2023-01-01T23:54:16.686Z,15.95
2023-01-01T23:56:48.855Z,15.98
2023-01-01T23:59:46.738Z,15.93
